Alexander Ruidiaz

Recruteur en chef - Juan Aurich
20 Févr 2028
Dimanche
Processus

Personnalité

Adaptabilité (1) Ambition (8) Controverse (11) Loyauté (10) Pression (4) Professionnalisme (19) Sportivité (14) Tempérament (11)

Profil

Style d'entraînement Démocratique
Diplôme National B
Détermination 11
Gestion des joueurs 8
Motivation 7
Discipline 9
Satisfaction professionnelle
100%
Fatigue
0%
Rôle Recruteur en chef
Salaire 32.7K p/s
Contrat 14.03.2028

Performance

Comportement Bon
Efficacité de l'entraînement
43%
Développement des joueurs
20%
Prévention des blessures
25%
Mise en place tactique
35%

Événements récents

A participé à une réunion de recrutement maintenant
A participé à une réunion de recrutement maintenant
Négociation de contrat entamée maintenant
A évalué un joueur maintenant
Négociation de contrat entamée maintenant
Négociation de contrat entamée maintenant
A évalué un joueur maintenant
Négociation de contrat entamée maintenant

Suivi en cours

212
Joueur Club Statut Capacité Confiance Observé Dernière observation Dernier vote
Martín Arenas Spartak 1918 Actif 92 / 96 40% 2 19.02.2028 -
Martin Sekulić Ural Actif 108 / 116 40% 5 19.02.2028 -
Carlos Torres Orenburg Actif 96 / 110 40% 2 19.02.2028 -
Andrés Dieppa Metalurh Zaporizhzhia Actif 98 / 102 40% 2 17.02.2028 -
Nathan Ordaz Metalist Actif 113 / 106 40% 2 17.02.2028 -
Juan Brunetta FC Copenhagen Actif 138 / 132 40% 1 15.02.2028 -
Franco Ayunta Kudrivka Actif 114 / 101 40% 1 15.02.2028 -
Ronan Hale Gillingham Actif 106 / 113 40% 4 14.02.2028 -
Aaron Collins Milton Keynes Dons Actif 125 / 119 40% 3 14.02.2028 -
Mees Rijks Bristol Rovers Actif 119 / 110 40% 4 14.02.2028 -
Uriel Antuna Zaragoza Actif 134 / 153 40% 2 13.02.2028 -
Carlos Fernández Oviedo Actif 132 / 128 40% 1 13.02.2028 -
Jesús Amarilla Naftan Actif 101 / 107 40% 2 11.02.2028 -
Bradley Fink Wycombe Wanderers Actif 120 / 101 40% 5 11.02.2028 -
Roger Brugué Levante Actif 125 / 127 40% 1 11.02.2028 -
Alejo Cruz Juventud Actif 124 / 123 40% 5 10.02.2028 Observer
Bautista Tomatis Racing Actif 112 / 113 40% 2 10.02.2028 -
Santiago Ramírez Deportivo Maldonado Actif 99 / 96 40% 2 10.02.2028 -
Federico Martínez Liverpool Montevideo Actif 112 / 113 40% 5 09.02.2028 -
Emiliano Mozzone Deportivo Maldonado Actif 101 / 100 40% 1 09.02.2028 -
Pablo López Tacuarembo Actif 105 / 92 40% 1 09.02.2028 -
Ignacio Yepez Cerrito Actif 107 / 116 40% 2 08.02.2028 -
Lucas Carrizo Plaza Colonia Actif 112 / 119 40% 3 08.02.2028 -
Luciano Gondou CSKA Moscow Actif 131 / 120 40% 1 07.02.2028 -
Juan Rocca Gimnasia y Tiro Actif 117 / 100 40% 5 07.01.2028 -
Richard Figueroa Deportivo Lara Actif 110 / 100 40% 5 07.01.2028 -
Luca Franco Arsenal Actif 107 / 115 40% 6 07.01.2028 -
Jhoao Rodríguez Deportes Quindio Actif 106 / 120 40% 1 06.01.2028 -
Tiziano Dornell Danubio Actif 109 / 130 40% 2 03.01.2028 -
Emiliano Saliadarre Miramar Misiones Actif 117 / 107 40% 2 03.01.2028 -
Rodrigo Bogarín Barracas Central Actif 117 / 117 40% 3 03.01.2028 -
Jefry Zapata Danubio Actif 124 / 127 40% 5 28.12.2027 -
Antony Alonso Deportivo Riestra Actif 125 / 121 40% 2 15.12.2027 -
Luca Martínez Dupuy Godoy Cruz Actif 125 / 129 40% 1 15.12.2027 -
Brayan Aragón Universitario Actif 100 / 84 69% 1 07.12.2027 Approuver
Jonathan Cañete Portuguesa Actif 109 / 101 40% 5 02.12.2027 -
Maclyn Biokpo Jenewari Rivers United Actif 106 / 115 40% 5 02.12.2027 -
Chineme Chinonso Ikorodu City Actif 87 / 82 40% 3 02.12.2027 -
Santiago Gálvez UTC Négociation 95 / 95 69% 1 02.12.2027 Approuver
Eric Ramírez Llaneros Actif 121 / 120 40% 6 27.11.2027 -
Fernando Mimbacas Juventud Actif 118 / 122 40% 3 27.11.2027 -
Leandro Suhr Boston River Actif 114 / 109 40% 4 26.11.2027 -
Richard Celis Zamora Actif 106 / 117 40% 5 23.11.2027 -
Kevin Méndez Dinamo Tbilisi Actif 108 / 113 40% 12 23.11.2027 -
Alexander Díaz Deportivo Riestra Actif 130 / 129 40% 1 22.11.2027 -
Facundo Castelli Estudiantes Actif 126 / 118 40% 4 21.11.2027 -
Samuel Anakwe Remo Stars Actif 107 / 92 40% 3 21.11.2027 -
Luciano Inverso Rentistas Actif 117 / 113 40% 1 19.11.2027 -
Gianluca Pugliese Güemes Actif 110 / 109 40% 7 17.11.2027 -
Adalberto Peñaranda Deportivo Tachira Actif 120 / 122 40% 3 17.11.2027 -
Santiago Sala Güemes Actif 114 / 112 40% 5 13.11.2027 -
Sebastián Cocimano Nueva Chicago Actif 115 / 113 40% 3 12.11.2027 -
Luciano Cosentino Wanderers Actif 132 / 115 40% 3 11.11.2027 -
Sunday Megwo Abia Warriors Actif 92 / 88 40% 3 03.11.2027 -
Agustín Módica Gimnasia y Esgrima Actif 119 / 114 40% 1 03.11.2027 -
Jhonatan Candia Barracas Central Actif 120 / 119 40% 3 30.10.2027 -
Marco Bustillo Zamora Actif 110 / 92 40% 6 29.10.2027 -
Lucas Pedraza Defensores Unidos Actif 99 / 95 40% 1 28.10.2027 -
Agustín Occhiato Katsina United Actif 103 / 101 40% 2 25.10.2027 -
Timothy Zechariah Rivers United Actif 108 / 103 40% 1 19.10.2027 -
Juan Mendoza Güemes Actif 102 / 105 40% 2 14.10.2027 -
Javier Martínez Almirante Brown Actif 111 / 119 40% 1 12.10.2027 -
Shuaibu Ibrahim Wikki Tourists Actif 98 / 72 40% 2 09.10.2027 -
Ivo Costantino Rentistas Actif 116 / 110 40% 2 08.10.2027 -
Adama Goïta Remo Stars Actif 103 / 118 40% 1 08.10.2027 -
Enzo Cabrera Danubio Actif 113 / 104 40% 1 07.10.2027 -
Nicolás Heiz Maipú Actif 114 / 107 40% 2 04.10.2027 -
Agustín Gallo Tristán Suárez Actif 116 / 112 40% 3 29.09.2027 -
Nahuel Soria Oriental Actif 110 / 94 40% 3 29.09.2027 -
Chinedu Onyinjekwu Bayelsa United Actif 89 / 96 40% 2 27.09.2027 -
Okardi Inikurogha Bayelsa United Actif 88 / 79 40% 1 25.09.2027 -
Agustín Paz Progreso Actif 120 / 105 40% 1 24.09.2027 -
Santiago Apa All Boys Actif 104 / 102 40% 1 23.09.2027 -
Joaquín Zeballos Wanderers Actif 112 / 109 40% 1 20.09.2027 -
Brian Fernández Banfield Actif 113 / 100 40% 2 16.09.2027 -
Facundo de León Progreso Actif 100 / 107 40% 1 13.09.2027 -
Misael Sosa Godoy Cruz Actif 120 / 110 40% 1 06.09.2027 -
Augusto Berrondo Tristán Suárez Actif 107 / 103 40% 1 06.09.2027 -
Camillo Tavernelli Arezzo Actif 127 / 112 40% 8 19.07.2027 -
Louis Appéré Cambridge United Actif 99 / 116 40% 4 19.07.2027 -
Fabrizio Lora Sporting Cristal Perdu 94 / 90 69% 1 19.07.2027 Approuver
Robert Mizo Ashanti Gold Actif 104 / 97 40% 8 09.07.2027 -
César Doy Melgar Actif 94 / 93 65% 1 28.06.2027 Approuver
Dale Taylor Blackpool Actif 108 / 128 40% 2 21.06.2027 -
Simone Mazzocchi Cosenza Actif 113 / 120 40% 3 21.06.2027 -
Diego Núñez Melgar Actif 84 / 79 65% 1 21.06.2027 Approuver
Bojan Radulović Huddersfield Town Actif 128 / 127 40% 4 31.05.2027 -
Davis Keillor-Dunn Wrexham Actif 122 / 114 40% 2 31.05.2027 -
Lee Bonis Chesterfield Actif 99 / 98 40% 4 31.05.2027 -
Stephen Humphrys Bradford City Actif 102 / 95 40% 4 27.05.2027 -
Iwan Morgan Grimsby Town Actif 105 / 120 40% 7 26.05.2027 -
Kelly Saravanan Salford City Actif 106 / 97 40% 5 26.05.2027 -
Lewis McCann Fleetwood Town Actif 105 / 99 40% 7 26.05.2027 -
Bismark Asante Ashanti Gold Actif 91 / 77 40% 4 24.05.2027 -
Alassana Jatta Notts County Actif 103 / 110 40% 4 23.05.2027 -
Bernat Guiu Virtus Entella Actif 112 / 120 40% 2 23.05.2027 -
Ekain Orobengoa Real Sociedad Actif 112 / 101 40% 4 19.05.2027 -
Malik Mothersille Stockport County Actif 126 / 103 40% 1 19.05.2027 Plus d'infos
Jayden Wareham Barnet Actif 106 / 104 40% 5 18.05.2027 -
Josh Koroma Leyton Orient Actif 102 / 117 40% 1 16.05.2027 -
Sam Nombe Milton Keynes Dons Actif 109 / 122 40% 2 15.05.2027 -
Niall Ennis Blackpool Actif 124 / 119 40% 1 15.05.2027 -
Matteo Rover Reggiana Actif 110 / 127 40% 1 14.05.2027 -
Lamine Guèye Barrow AFC Actif 116 / 119 40% 2 13.05.2027 -
Mattia Iori Lumezzane Actif 109 / 97 40% 1 13.05.2027 -
Kwame Opoku Asante Kotoko Actif 90 / 85 40% 3 12.05.2027 -
Fortune Bassey Djoliba Actif 111 / 112 40% 4 09.05.2027 -
Harry Leonard Peterborough United Actif 113 / 126 40% 6 09.05.2027 -
Marcus Browne AFC Wimbledon Actif 100 / 109 40% 2 07.05.2027 -
Christian Saydee Wigan Athletic Actif 111 / 124 40% 1 07.05.2027 -
Francesco Petito Dolomiti Bellunesi Actif 94 / 91 40% 1 04.05.2027 -
Marco Tumminello Benevento Actif 109 / 111 40% 3 29.04.2027 -
Will Evans Mansfield Town Actif 94 / 85 40% 2 29.04.2027 -
Michele Emmausso Cosenza Actif 113 / 115 40% 1 24.04.2027 -
Jaze Kabia Grimsby Town Actif 86 / 102 40% 1 24.04.2027 -
Danyil Alefirenko Chornomorets Actif 106 / 108 40% 3 23.04.2027 -
Oleksii Hutsuliak Polissia Actif 121 / 111 40% 1 21.04.2027 -
Chinedu Geoffrey Krylya Sovetov Actif 125 / 118 40% 4 20.04.2027 -
Friday Ubong Ashanti Gold Actif 113 / 87 40% 3 20.04.2027 -
Matthew Dennis Notts County Actif 94 / 99 40% 2 20.04.2027 -
Vyacheslav Grulev Nizhniy Novgorod Actif 108 / 103 40% 3 18.04.2027 -
Fabrizio Cavegn Bristol Rovers Actif 113 / 111 40% 1 18.04.2027 -
Luca Fabrizi Pianese Actif 100 / 93 40% 1 14.04.2027 -
Pedro Marques Apollon Actif 115 / 95 40% 1 14.04.2027 -
Giacomo Zecca Torres Actif 97 / 102 40% 3 13.04.2027 -
Andrea Mattioli Arzignano Actif 105 / 89 40% 1 13.04.2027 -
José Martínes CSKA 1948 Actif 106 / 105 40% 2 12.04.2027 -
Lorenzo Di Stefano Torres Actif 119 / 117 40% 2 10.04.2027 -
Tenton Yenne Baltika Actif 100 / 105 40% 1 02.04.2027 -
Isaac Essien WAFA Actif 109 / 88 40% 5 30.03.2027 -
Dara Costelloe Wigan Athletic Actif 88 / 94 40% 1 30.03.2027 -
Marco Da Graca Novara Actif 105 / 119 40% 1 30.03.2027 -
Promise Omochere Bristol Rovers Actif 86 / 92 40% 2 24.03.2027 -
Dmitry Tsypchenko Torpedo Moscow Actif 112 / 101 40% 2 19.03.2027 -
Gladson Paintsil Wa All Stars Actif 84 / 106 40% 5 18.03.2027 -
Berna CSKA 1948 Actif 111 / 124 40% 2 17.03.2027 -
Kamran Aliev SKA Khabarovsk Actif 97 / 101 40% 1 17.03.2027 -
Calum Kavanagh Oldham Athletic Actif 89 / 105 40% 1 15.03.2027 -
Emanuele Schimmenti Potenza Actif 122 / 123 40% 1 10.03.2027 -
Ihor Krasnopir Polissia Actif 127 / 118 40% 2 05.03.2027 -
Mikhail Ignatov Sochi Actif 101 / 116 40% 1 03.03.2027 -
Lorent Tolaj Plymouth Argyle Actif 117 / 111 40% 1 19.02.2027 -
Tedi Cara LNZ Actif 110 / 123 40% 2 18.02.2027 -
Papa Ndiaga Yade Oleksandriya Actif 104 / 120 40% 1 16.02.2027 -
Jonathan Gyan Liberty Professionals Actif 84 / 81 40% 1 07.02.2027 -
Leo Castledine Middlesbrough Actif 123 / 118 40% 1 06.02.2027 -
Yurii Klymchuk Kolos Actif 108 / 102 40% 1 04.02.2027 -
Joel Fameyeh Puskas Akademia Actif 117 / 123 40% 1 06.01.2027 -
Milán Tóth Vasas Actif 100 / 110 40% 1 28.12.2026 -
Eren Aydın Zira Actif 93 / 103 40% 2 01.12.2026 -
Nicolás Contín MFK Ruzomberok Actif 112 / 124 40% 5 27.11.2026 -
Job Ochieng Real Sociedad Actif 103 / 106 40% 3 27.11.2026 -
Dániel Lukács Puskas Akademia Actif 125 / 94 40% 1 25.11.2026 -
Peter Christiansen Viking Actif 122 / 123 40% 2 19.11.2026 -
Krisztofer Horváth Ujpest Actif 104 / 118 40% 1 19.11.2026 -
Jonás Luna Santa Clara Actif 125 / 110 40% 5 15.11.2026 -
Elias Hoff Melkersen Stromsgodset Actif 100 / 118 40% 1 14.11.2026 -
Sergio Riffo NK Zavrc Actif 84 / 93 40% 1 11.11.2026 -
Agustín Fernández NK Zavrc Actif 101 / 98 40% 1 09.11.2026 -
Ruben van Bommel Ferencvaros Actif 145 / 119 40% 1 09.11.2026 -
Gaspar Duarte Rosario Central Actif 124 / 109 40% 1 05.11.2026 -
Alejandro Viniegra Fehervar Actif 91 / 91 40% 1 04.11.2026 -
Nikolay Obolskiy Córdoba Actif 106 / 107 40% 2 02.11.2026 -
Hansel Zapata Botev Plovdiv Actif 109 / 102 40% 3 31.10.2026 -
Daniel Karlsbakk Sarpsborg 08 Actif 120 / 141 40% 1 28.10.2026 -
Kristian Eriksen Molde Actif 139 / 138 40% 1 24.10.2026 -
Marcelo Torres Gimnasia La Plata Actif 128 / 115 40% 4 18.10.2026 -
Tomás Orqueida Mattersburg Actif 112 / 93 40% 1 18.10.2026 -
Axel Pérez NK Domzale Actif 90 / 95 40% 1 18.10.2026 -
José Rivas Gamboa Trujillanos Actif 104 / 99 40% 1 16.10.2026 -
José Balza Deportivo Tachira Actif 110 / 100 40% 3 15.10.2026 -
Tomás Romero Unión de Santa Fe Actif 98 / 112 40% 2 15.10.2026 -
Ronaldo Peña Deportivo Lara Actif 102 / 113 40% 2 14.10.2026 -
Andreas Gruber DAC Dunajska Streda Actif 105 / 125 40% 1 13.10.2026 -
Denzel Jubitana Neftchi Actif 109 / 129 40% 2 11.10.2026 -
Elías Ovelar Dinamo Brest Actif 96 / 87 40% 1 08.10.2026 -
Gabriel Jesus Barcelona Actif 156 / 145 40% 3 07.10.2026 -
Junior Paredes Trujillanos Actif 110 / 103 40% 1 05.10.2026 -
Andreas Helmersen Bodo/Glimt Actif 133 / 127 40% 2 29.09.2026 -
Leandro Romano Ismaily Actif 85 / 100 40% 1 28.09.2026 -
Jeriel De Santis Caracas Actif 107 / 112 40% 2 26.09.2026 -
Fabricio Oviedo Rosario Central Actif 111 / 113 40% 1 26.09.2026 -
Domingo Ortíz Arda Actif 97 / 79 40% 1 23.09.2026 -
Genaro Rossi San Martín SJ Actif 116 / 117 40% 1 22.09.2026 -
Ramiro Ruiz Rodríguez Atlético Tucumán Actif 112 / 115 40% 1 18.09.2026 -
Joseph Atule Barau Actif 104 / 81 40% 1 15.09.2026 -
Mauricio Márquez Caracas Actif 94 / 107 40% 2 14.09.2026 -
Carlos Guerreño Slavia Sofia Actif 105 / 96 40% 2 13.09.2026 -
Luka Kurtovic NK Domzale Actif 115 / 136 40% 1 13.09.2026 -
Thomas Oliveri Defensa y Justicia Actif 89 / 90 40% 1 12.09.2026 -
Alan Cisnero Shukura Actif 89 / 108 40% 1 10.09.2026 -
Ronny Maza Aragua Actif 100 / 106 40% 1 08.09.2026 -
Santiago de Ossa Botev Plovdiv Actif 92 / 105 40% 1 02.09.2026 -
Kwadwo Duah Ludogorets Actif 123 / 132 40% 1 25.08.2026 -
Alejandro Aquino Valerenga Actif 82 / 104 40% 1 24.08.2026 -
Andrés Molinas Alashkert Actif 104 / 107 40% 1 22.08.2026 -
Deyman Cortés Botev Plovdiv Actif 78 / 100 40% 1 21.08.2026 -
Ignacio Giacinti Patronato Actif 88 / 86 40% 1 18.08.2026 -
Gonzalo Tapia Palestino Actif 95 / 98 40% 1 15.08.2026 -
Edixon Mena Ventspils Actif 94 / 84 40% 1 14.08.2026 -
Ignacio Sabatini Gimnasia y Esgrima Actif 102 / 113 40% 1 14.08.2026 -
Lucas Bruera Carabobo Actif 122 / 123 40% 1 10.08.2026 -
Jorge Graterol Deportivo Lara Actif 89 / 87 40% 1 09.08.2026 -
Héctor Espínola Caracas Actif 109 / 112 40% 1 08.08.2026 -
Mauro Smarra Deportivo Riestra Actif 94 / 102 40% 1 05.08.2026 -
Christian Larotonda Caracas Actif 117 / 104 40% 1 05.08.2026 -
Javi Moreno Albacete Actif 104 / 110 40% 1 05.08.2026 -
Lucas Souto Defensa y Justicia Actif 126 / 130 40% 1 03.08.2026 -
Pedro Silva Torrejón Gimnasia La Plata Actif 111 / 109 40% 1 03.08.2026 -
Jáder Quiñónes Once Caldas Actif 114 / 114 40% 1 02.08.2026 -
Alexander González Boston River Actif 106 / 111 40% 1 01.08.2026 -
Munir Albacete Actif 110 / 133 40% 1 01.08.2026 -